Time;durP1;ratioP1;P1;durP2;ratioP2;P2;SDS_P1;SDS_P2;PMS_P1;PMS_P2;Temp;Humidity;BMP_temperature;BMP_pressure;BME280_temperature;BME280_humidity;BME280_pressure;Samples;Min_cycle;Max_cycle;Signal;HPM_P1;HPM_P2
2022/03/25 00:01:37;;;;;;;43.83;28.55;;;;;;;14.31;44.45;102861.75;5054243;28;20049;-60
2022/03/25 00:04:05;;;;;;;44.03;26.77;;;;;;;14.30;44.40;102856.53;5060556;28;20107;-59
2022/03/25 00:06:33;;;;;;;50.60;28.20;;;;;;;14.27;44.69;102855.06;5056662;28;20072;-59
2022/03/25 00:09:01;;;;;;;48.08;29.63;;;;;;;14.26;44.84;102852.56;5061014;28;20095;-60
2022/03/25 00:11:30;;;;;;;51.53;30.77;;;;;;;14.25;44.78;102856.28;5053330;28;20049;-60
2022/03/25 00:13:59;;;;;;;47.03;29.13;;;;;;;14.22;44.59;102860.22;5057501;28;20128;-60
2022/03/25 00:16:27;;;;;;;50.10;29.48;;;;;;;14.21;45.06;102860.44;5047407;28;20111;-60
2022/03/25 00:18:55;;;;;;;50.17;30.73;;;;;;;14.20;45.07;102861.47;5057343;28;20048;-59
2022/03/25 00:21:22;;;;;;;51.90;30.50;;;;;;;14.17;45.23;102864.56;5054501;28;20116;-59
2022/03/25 00:23:50;;;;;;;44.50;28.73;;;;;;;14.15;45.14;102872.88;5059091;28;20107;-60
2022/03/25 00:26:18;;;;;;;44.38;28.67;;;;;;;14.13;45.23;102874.09;5060262;28;20068;-59
2022/03/25 00:28:46;;;;;;;46.95;29.92;;;;;;;14.12;44.92;102877.84;5060111;28;20045;-59
2022/03/25 00:31:16;;;;;;;49.25;28.75;;;;;;;14.09;45.34;102868.25;5043233;28;20064;-59
2022/03/25 00:33:49;;;;;;;46.38;29.63;;;;;;;14.08;44.94;102873.84;5055989;28;20044;-60
2022/03/25 00:36:17;;;;;;;48.03;29.42;;;;;;;14.06;45.23;102874.03;5055580;28;20114;-60
2022/03/25 00:38:46;;;;;;;48.33;30.52;;;;;;;14.06;44.97;102873.19;5053995;28;20057;-60
2022/03/25 00:41:15;;;;;;;48.03;29.52;;;;;;;14.03;45.19;102871.72;5061971;28;20084;-60
2022/03/25 00:43:43;;;;;;;50.60;28.00;;;;;;;14.00;45.36;102872.94;5057340;28;20044;-59
2022/03/25 00:46:11;;;;;;;49.70;29.77;;;;;;;13.98;45.15;102868.78;5058232;28;20080;-58
2022/03/25 00:48:42;;;;;;;46.92;29.65;;;;;;;13.97;44.94;102867.09;5053486;28;20441;-58
2022/03/25 00:51:10;;;;;;;49.53;29.13;;;;;;;13.95;45.17;102871.88;5053036;28;20050;-58
2022/03/25 00:53:38;;;;;;;44.60;29.25;;;;;;;13.92;45.29;102869.56;5062299;28;20052;-59
2022/03/25 00:56:06;;;;;;;49.47;28.95;;;;;;;13.92;45.33;102856.03;5058356;28;20060;-59
2022/03/25 00:58:34;;;;;;;44.75;28.63;;;;;;;13.90;45.44;102864.34;5065550;28;20101;-58
2022/03/25 01:01:02;;;;;;;45.90;28.20;;;;;;;13.90;45.04;102858.09;5057410;28;20057;-59
2022/03/25 01:03:30;;;;;;;46.88;29.40;;;;;;;13.88;45.02;102861.00;5048677;28;20059;-59
2022/03/25 01:05:59;;;;;;;46.72;29.25;;;;;;;13.86;45.38;102857.69;5059675;28;20060;-59
2022/03/25 01:08:27;;;;;;;48.47;30.05;;;;;;;13.73;45.46;102844.03;5052063;28;20041;-60
2022/03/25 01:10:55;;;;;;;43.95;28.77;;;;;;;13.81;45.12;102864.69;5054475;28;20045;-59
2022/03/25 01:13:22;;;;;;;49.13;28.95;;;;;;;13.81;45.12;102862.84;5056405;28;20083;-59
2022/03/25 01:15:50;;;;;;;48.92;28.90;;;;;;;13.79;45.26;102862.19;5056393;28;20101;-60
2022/03/25 01:18:18;;;;;;;50.45;28.67;;;;;;;13.79;45.13;102861.34;5050258;28;20045;-60
2022/03/25 01:20:46;;;;;;;49.75;30.63;;;;;;;13.78;45.40;102855.13;5057889;28;20083;-60
2022/03/25 01:23:15;;;;;;;45.97;28.38;;;;;;;13.77;45.24;102858.00;5061058;28;20052;-60
2022/03/25 01:25:43;;;;;;;48.55;29.60;;;;;;;13.76;45.08;102857.16;5053100;28;20098;-60
2022/03/25 01:28:11;;;;;;;43.58;28.17;;;;;;;13.75;45.37;102863.59;5063662;28;20045;-59
2022/03/25 01:30:38;;;;;;;44.65;27.77;;;;;;;13.75;44.97;102863.59;5063353;28;20076;-59
2022/03/25 01:33:06;;;;;;;46.67;27.98;;;;;;;13.73;45.31;102859.44;5059743;28;20826;-60
2022/03/25 01:35:34;;;;;;;46.10;28.33;;;;;;;13.70;45.40;102852.53;5053581;28;20052;-59
2022/03/25 01:38:02;;;;;;;48.00;28.83;;;;;;;13.67;45.30;102852.94;5045951;28;20145;-60
2022/03/25 01:40:32;;;;;;;43.20;27.52;;;;;;;13.67;45.05;102856.47;5055148;28;20044;-59
2022/03/25 01:43:00;;;;;;;51.92;30.73;;;;;;;13.65;45.27;102858.53;5063589;28;20155;-60
2022/03/25 01:45:31;;;;;;;45.15;27.25;;;;;;;13.65;45.05;102846.88;5056209;28;20072;-58
2022/03/25 01:48:00;;;;;;;46.30;27.42;;;;;;;13.63;45.45;102851.63;5060367;28;20045;-59
2022/03/25 01:50:28;;;;;;;44.78;28.38;;;;;;;13.62;45.08;102858.06;5061262;28;20056;-59
2022/03/25 01:52:56;;;;;;;44.55;28.85;;;;;;;13.60;45.27;102852.03;5051167;28;20101;-59
2022/03/25 01:55:26;;;;;;;46.83;28.48;;;;;;;13.58;45.30;102857.63;5058509;28;20057;-59
2022/03/25 01:57:58;;;;;;;46.28;28.83;;;;;;;13.56;45.43;102856.97;5059480;28;20048;-60
2022/03/25 02:00:29;;;;;;;51.28;28.05;;;;;;;13.55;45.21;102855.31;5057826;28;20056;-59
2022/03/25 02:02:57;;;;;;;41.92;27.00;;;;;;;13.53;45.09;102854.66;5060225;28;20080;-59
2022/03/25 02:05:25;;;;;;;51.97;29.08;;;;;;;13.50;45.45;102860.44;5062410;28;20063;-59
2022/03/25 02:07:52;;;;;;;45.85;28.30;;;;;;;13.48;45.38;102857.09;5051927;28;20543;-59
2022/03/25 02:10:20;;;;;;;45.85;27.65;;;;;;;13.47;44.98;102858.13;5057906;28;20053;-59
2022/03/25 02:12:48;;;;;;;46.97;29.00;;;;;;;13.47;45.10;102860.00;5057982;28;20494;-60
2022/03/25 02:15:17;;;;;;;51.35;30.25;;;;;;;13.44;44.93;102854.97;5062799;28;20057;-59
2022/03/25 02:17:45;;;;;;;47.55;28.70;;;;;;;13.42;45.38;102863.28;5061675;28;20049;-59
2022/03/25 02:20:13;;;;;;;46.50;29.52;;;;;;;13.40;45.12;102853.69;5058773;28;20092;-58
2022/03/25 02:22:42;;;;;;;47.03;27.60;;;;;;;13.36;45.39;102850.53;5060640;28;20057;-60
2022/03/25 02:25:13;;;;;;;47.13;29.60;;;;;;;13.34;45.20;102861.53;5051953;28;20049;-60
2022/03/25 02:27:42;;;;;;;49.50;29.30;;;;;;;13.32;45.31;102857.34;5052276;28;20056;-60
2022/03/25 02:30:12;;;;;;;49.80;28.83;;;;;;;13.28;45.15;102851.47;5061801;28;20475;-59
2022/03/25 02:32:40;;;;;;;52.47;29.40;;;;;;;13.27;45.46;102857.06;5060768;28;20045;-59
2022/03/25 02:35:10;;;;;;;47.85;28.95;;;;;;;13.25;45.15;102853.72;5063992;28;20056;-59
2022/03/25 02:37:38;;;;;;;49.85;29.05;;;;;;;13.24;45.09;102846.66;5057922;28;20124;-59
2022/03/25 02:40:08;;;;;;;41.22;27.23;;;;;;;13.22;45.20;102848.72;5061270;28;20077;-59
2022/03/25 02:42:36;;;;;;;51.47;27.63;;;;;;;13.21;45.07;102857.84;5056927;28;20056;-59
2022/03/25 02:45:05;;;;;;;41.72;27.13;;;;;;;13.19;45.08;102852.63;5047097;28;20041;-58
2022/03/25 02:47:32;;;;;;;44.28;27.48;;;;;;;13.19;45.32;102859.88;5061023;28;20064;-59
2022/03/25 02:50:00;;;;;;;45.20;26.98;;;;;;;13.18;45.12;102855.50;5054766;28;20048;-59
2022/03/25 02:52:28;;;;;;;48.38;26.33;;;;;;;13.16;45.02;102855.72;5052727;28;20178;-60
2022/03/25 02:54:56;;;;;;;40.33;25.13;;;;;;;13.16;44.95;102852.13;5053596;28;20065;-60
2022/03/25 02:57:25;;;;;;;44.35;28.10;;;;;;;13.15;45.02;102850.47;5047351;28;20406;-59
2022/03/25 02:59:52;;;;;;;48.38;26.60;;;;;;;13.13;44.59;102850.66;5057095;28;20065;-59
2022/03/25 03:02:20;;;;;;;45.28;27.02;;;;;;;13.12;44.64;102854.38;5061416;28;20045;-59
2022/03/25 03:04:49;;;;;;;47.40;25.83;;;;;;;13.12;44.70;102851.69;5050226;28;20045;-59
2022/03/25 03:07:17;;;;;;;41.28;25.40;;;;;;;13.11;44.62;102857.28;5059410;28;20081;-59
2022/03/25 03:09:45;;;;;;;41.60;26.50;;;;;;;13.05;44.83;102848.06;5056133;28;20522;-59
2022/03/25 03:12:13;;;;;;;42.70;25.75;;;;;;;13.08;44.99;102858.47;5058639;28;20081;-59
2022/03/25 03:14:42;;;;;;;44.97;26.92;;;;;;;12.95;44.67;102839.44;5047507;28;20088;-60
2022/03/25 03:17:12;;;;;;;44.28;26.23;;;;;;;13.03;44.63;102853.66;5056134;28;20053;-59
2022/03/25 03:19:40;;;;;;;43.20;25.88;;;;;;;13.03;44.56;102855.50;5062269;28;21149;-59
2022/03/25 03:22:08;;;;;;;40.50;25.77;;;;;;;13.02;44.37;102854.69;5057029;28;20076;-59
2022/03/25 03:24:36;;;;;;;44.78;24.92;;;;;;;12.99;44.14;102852.34;5048765;28;20056;-59
2022/03/25 03:27:04;;;;;;;41.40;25.75;;;;;;;12.98;44.20;102853.38;5054120;28;20048;-59
2022/03/25 03:29:32;;;;;;;39.83;25.67;;;;;;;12.95;44.37;102851.06;5061711;28;20080;-60
2022/03/25 03:32:01;;;;;;;40.97;25.85;;;;;;;12.95;44.24;102852.91;5049123;28;20064;-58
2022/03/25 03:34:29;;;;;;;45.10;24.98;;;;;;;12.92;44.05;102854.13;5054684;28;20053;-59
2022/03/25 03:36:57;;;;;;;43.40;24.65;;;;;;;12.90;44.39;102847.25;5056697;28;20072;-59
2022/03/25 03:39:24;;;;;;;46.00;25.20;;;;;;;12.88;44.10;102847.44;5053992;28;20110;-59
2022/03/25 03:41:52;;;;;;;44.88;26.35;;;;;;;12.87;44.31;102851.16;5056829;28;20077;-59
2022/03/25 03:44:20;;;;;;;40.30;25.45;;;;;;;12.86;44.33;102848.66;5060041;28;20108;-59
2022/03/25 03:46:48;;;;;;;42.85;25.15;;;;;;;12.83;44.12;102849.88;5056906;28;20431;-59
2022/03/25 03:49:17;;;;;;;42.22;25.40;;;;;;;12.82;44.11;102847.34;5054929;28;20079;-59
2022/03/25 03:51:44;;;;;;;40.40;25.65;;;;;;;12.80;44.07;102857.50;5061336;28;20080;-59
2022/03/25 03:54:12;;;;;;;37.63;24.45;;;;;;;12.76;43.98;102850.81;5059436;28;20076;-59
2022/03/25 03:56:40;;;;;;;38.65;24.00;;;;;;;12.76;43.96;102862.44;5048540;28;20065;-59
2022/03/25 03:59:07;;;;;;;40.38;25.83;;;;;;;12.75;44.04;102859.91;5055794;28;20060;-60
2022/03/25 04:01:35;;;;;;;41.63;24.77;;;;;;;12.71;43.99;102854.06;5061272;28;20062;-59
2022/03/25 04:04:04;;;;;;;41.30;25.85;;;;;;;12.71;44.01;102856.75;5048852;28;20049;-59
2022/03/25 04:06:33;;;;;;;40.08;25.73;;;;;;;12.68;43.87;102855.28;5059011;28;20060;-60
2022/03/25 04:09:01;;;;;;;42.90;24.35;;;;;;;12.67;44.05;102855.47;5050086;28;20045;-60
2022/03/25 04:11:28;;;;;;;40.33;24.73;;;;;;;12.66;43.85;102861.88;5061539;28;20056;-60
2022/03/25 04:13:56;;;;;;;39.03;26.08;;;;;;;12.64;43.98;102862.06;5057487;28;20041;-59
2022/03/25 04:16:24;;;;;;;45.17;26.10;;;;;;;12.63;44.02;102857.69;5059879;28;20089;-60
2022/03/25 04:18:52;;;;;;;42.08;25.73;;;;;;;12.63;44.03;102870.34;5059393;28;20467;-60
2022/03/25 04:21:20;;;;;;;42.67;25.20;;;;;;;12.60;43.87;102868.84;5048614;28;20364;-60
2022/03/25 04:23:49;;;;;;;39.95;24.83;;;;;;;12.60;43.88;102860.75;5059250;28;20055;-59
2022/03/25 04:26:17;;;;;;;46.08;27.27;;;;;;;12.55;43.47;102854.25;5052459;28;20137;-59
2022/03/25 04:28:44;;;;;;;42.70;25.67;;;;;;;12.57;43.88;102866.53;5047285;28;20127;-58
2022/03/25 04:31:12;;;;;;;42.35;26.30;;;;;;;12.56;43.73;102866.72;5045905;28;20064;-58
2022/03/25 04:33:40;;;;;;;42.92;24.85;;;;;;;12.55;43.75;102868.56;5057228;28;20127;-59
2022/03/25 04:36:09;;;;;;;42.15;26.05;;;;;;;12.53;43.72;102873.31;5058276;28;20045;-59
2022/03/25 04:38:37;;;;;;;43.88;25.70;;;;;;;12.52;43.62;102868.94;5058703;28;20064;-60
2022/03/25 04:41:06;;;;;;;41.60;25.52;;;;;;;12.51;43.66;102866.44;5065156;28;20355;-59
2022/03/25 04:43:34;;;;;;;42.78;27.20;;;;;;;12.50;43.67;102876.38;5057055;28;20075;-60
2022/03/25 04:46:02;;;;;;;42.80;27.88;;;;;;;12.48;43.51;102874.88;5051864;28;20049;-59
2022/03/25 04:48:29;;;;;;;42.90;27.13;;;;;;;12.45;43.43;102870.69;5058284;28;20076;-59
2022/03/25 04:50:57;;;;;;;45.47;27.58;;;;;;;12.43;43.50;102878.13;5056211;28;20059;-60
2022/03/25 04:53:26;;;;;;;41.88;26.70;;;;;;;12.42;43.39;102878.31;5065343;28;20447;-59
2022/03/25 04:55:54;;;;;;;50.80;27.65;;;;;;;12.39;43.53;102869.59;5064118;28;20489;-59
2022/03/25 04:58:23;;;;;;;44.78;26.52;;;;;;;12.39;43.40;102871.44;5061085;28;20049;-59
2022/03/25 05:00:51;;;;;;;45.25;26.55;;;;;;;12.37;43.46;102881.56;5053891;28;20065;-59
2022/03/25 05:03:19;;;;;;;49.05;28.52;;;;;;;12.34;43.66;102882.78;5063247;28;20149;-59
2022/03/25 05:05:47;;;;;;;42.63;27.20;;;;;;;12.33;43.50;102885.66;5060152;28;20057;-60
2022/03/25 05:08:15;;;;;;;42.95;28.05;;;;;;;12.30;43.67;102886.88;5058840;28;20080;-59
2022/03/25 05:10:44;;;;;;;47.90;28.35;;;;;;;12.28;43.51;102883.50;5059281;28;20075;-59
2022/03/25 05:13:29;;;;;;;45.42;27.88;;;;;;;12.24;43.44;102879.50;5055990;28;20473;-60
2022/03/25 05:15:57;;;;;;;46.80;28.42;;;;;;;12.25;43.49;102883.03;5065554;28;20079;-58
2022/03/25 05:18:25;;;;;;;49.53;27.85;;;;;;;12.22;43.48;102880.72;5058726;28;20133;-59
2022/03/25 05:20:53;;;;;;;46.10;27.60;;;;;;;12.20;43.48;102888.97;5046228;28;20105;-59
2022/03/25 05:23:22;;;;;;;42.85;27.08;;;;;;;12.19;43.62;102887.31;5060618;28;20487;-58
2022/03/25 05:25:50;;;;;;;43.15;27.30;;;;;;;12.18;43.46;102891.03;5067180;28;20048;-59
2022/03/25 05:28:19;;;;;;;46.88;27.95;;;;;;;12.13;43.57;102879.13;5064891;28;20421;-59
2022/03/25 05:30:48;;;;;;;43.72;27.13;;;;;;;12.15;43.67;102885.16;5060278;28;20068;-59
2022/03/25 05:33:15;;;;;;;43.65;27.42;;;;;;;12.14;43.52;102889.72;5071739;28;20055;-60
2022/03/25 05:35:43;;;;;;;46.67;28.35;;;;;;;12.13;43.49;102889.94;5055390;28;20112;-60
2022/03/25 05:38:11;;;;;;;45.10;28.75;;;;;;;12.12;43.68;102897.16;5058312;28;20084;-58
2022/03/25 05:40:39;;;;;;;41.00;27.13;;;;;;;12.10;43.46;102896.50;5051417;28;20095;-59
2022/03/25 05:43:07;;;;;;;44.85;27.63;;;;;;;12.08;43.84;102893.16;5065852;28;20455;-59
2022/03/25 05:45:35;;;;;;;45.33;29.08;;;;;;;12.08;43.68;102893.16;5054992;28;20060;-59
2022/03/25 05:48:05;;;;;;;42.83;27.10;;;;;;;12.06;43.48;102889.81;5059725;28;20060;-61
2022/03/25 05:50:33;;;;;;;41.50;27.20;;;;;;;12.05;43.55;102896.22;5060110;28;20096;-59
2022/03/25 05:53:01;;;;;;;48.90;27.05;;;;;;;12.04;43.72;102902.63;5057060;28;20442;-58
2022/03/25 05:55:29;;;;;;;42.85;27.95;;;;;;;12.00;43.77;102894.06;5064317;28;20068;-60
2022/03/25 05:57:57;;;;;;;47.42;30.10;;;;;;;12.03;43.50;102898.25;5059333;28;20076;-59
2022/03/25 06:00:25;;;;;;;44.47;27.90;;;;;;;12.01;43.48;102903.00;5061124;28;20044;-59
2022/03/25 06:02:52;;;;;;;49.15;31.08;;;;;;;12.01;43.50;102905.69;5060885;28;20478;-60
2022/03/25 06:05:22;;;;;;;48.17;28.30;;;;;;;12.00;43.36;102906.72;5063053;28;20049;-59
2022/03/25 06:07:50;;;;;;;42.92;28.00;;;;;;;11.98;43.58;102909.59;5057457;28;20073;-58
2022/03/25 06:10:18;;;;;;;44.00;28.50;;;;;;;11.98;43.49;102906.06;5054701;28;20069;-59
2022/03/25 06:12:46;;;;;;;48.40;29.80;;;;;;;11.97;43.42;102910.59;5062021;28;20076;-59
2022/03/25 06:15:14;;;;;;;44.15;29.02;;;;;;;11.97;43.49;102907.06;5060196;28;20091;-59
2022/03/25 06:17:43;;;;;;;48.25;29.58;;;;;;;12.08;43.37;102909.34;5061299;28;20133;-58
2022/03/25 06:20:12;;;;;;;47.33;29.27;;;;;;;12.17;43.14;102915.47;5058054;28;20076;-58
2022/03/25 06:22:41;;;;;;;47.97;28.98;;;;;;;12.18;43.32;102909.88;5060415;28;20056;-59
2022/03/25 06:25:11;;;;;;;45.50;28.25;;;;;;;12.17;42.99;102910.91;5056727;28;20056;-59
2022/03/25 06:27:46;;;;;;;44.50;28.52;;;;;;;12.17;42.98;102918.16;5050608;28;20084;-58
2022/03/25 06:30:14;;;;;;;48.53;29.75;;;;;;;12.15;42.96;102922.91;5060301;28;20049;-60
2022/03/25 06:32:42;;;;;;;52.72;30.58;;;;;;;12.12;42.94;102926.81;5054120;28;20079;-58
2022/03/25 06:35:10;;;;;;;51.10;29.73;;;;;;;12.09;42.95;102924.50;5065011;28;20056;-59
2022/03/25 06:37:38;;;;;;;46.95;30.08;;;;;;;12.01;43.06;102916.47;5051824;28;20068;-59
2022/03/25 06:40:08;;;;;;;52.75;31.48;;;;;;;12.05;42.98;102923.16;5061071;28;20049;-59
2022/03/25 06:42:37;;;;;;;56.88;30.77;;;;;;;12.03;43.20;102941.38;5061247;28;20084;-58
2022/03/25 06:45:07;;;;;;;51.80;31.30;;;;;;;12.00;43.25;102931.81;5058781;28;20077;-58
2022/03/25 06:47:35;;;;;;;52.53;32.60;;;;;;;12.01;43.34;102936.16;5057088;28;20083;-58
2022/03/25 06:50:04;;;;;;;51.40;30.77;;;;;;;12.00;43.40;102936.34;5068864;28;20055;-58
2022/03/25 06:52:33;;;;;;;53.58;31.75;;;;;;;12.00;43.49;102933.66;5054115;28;20077;-59
2022/03/25 06:55:01;;;;;;;52.13;31.20;;;;;;;12.00;43.45;102941.75;5056293;28;20111;-59
2022/03/25 06:57:31;;;;;;;50.03;31.80;;;;;;;11.99;43.47;102937.38;5063369;28;20426;-58
2022/03/25 06:59:59;;;;;;;46.40;29.35;;;;;;;11.99;43.49;102943.59;5053060;28;20112;-63
2022/03/25 07:02:27;;;;;;;47.65;31.13;;;;;;;11.98;43.58;102947.31;5056180;28;20065;-59
2022/03/25 07:04:55;;;;;;;49.90;31.48;;;;;;;11.98;43.56;102946.47;4703099;28;10000414;-58
2022/03/25 07:07:26;;;;;;;46.83;30.15;;;;;;;11.99;43.56;102937.38;5053474;28;20076;-58
2022/03/25 07:09:55;;;;;;;55.10;31.98;;;;;;;11.97;43.76;102939.41;5056047;28;20057;-58
2022/03/25 07:12:23;;;;;;;48.10;30.60;;;;;;;11.98;43.78;102941.09;5060559;28;20041;-58
2022/03/25 07:14:52;;;;;;;47.92;30.42;;;;;;;11.97;43.75;102942.94;5050190;28;20120;-59
2022/03/25 07:17:20;;;;;;;48.38;30.88;;;;;;;11.96;43.71;102946.66;5059505;28;20052;-59
2022/03/25 07:19:48;;;;;;;53.33;31.88;;;;;;;11.91;43.88;102940.97;5058355;28;20057;-63
2022/03/25 07:22:16;;;;;;;50.58;30.77;;;;;;;11.96;43.90;102946.66;5048643;28;20075;-58
2022/03/25 07:24:44;;;;;;;54.67;33.38;;;;;;;11.96;44.02;102945.81;5052344;28;20226;-57
2022/03/25 07:27:11;;;;;;;60.15;32.85;;;;;;;11.96;44.03;102960.13;5062061;28;20545;-58
2022/03/25 07:29:39;;;;;;;52.08;33.65;;;;;;;11.96;44.00;102964.69;5063735;28;20452;-58
2022/03/25 07:32:08;;;;;;;54.95;35.80;;;;;;;11.96;44.02;102956.59;5058256;28;20084;-58
2022/03/25 07:34:38;;;;;;;54.15;33.53;;;;;;;11.97;43.99;102960.97;5058018;28;20068;-58
2022/03/25 07:37:06;;;;;;;52.58;33.85;;;;;;;11.98;43.98;102960.78;5050485;28;20056;-56
2022/03/25 07:39:34;;;;;;;56.90;35.55;;;;;;;12.00;44.18;102969.53;5057750;28;20076;-57
2022/03/25 07:42:01;;;;;;;53.42;33.33;;;;;;;11.97;44.14;102975.28;5074076;28;20133;-57
2022/03/25 07:44:29;;;;;;;58.88;34.15;;;;;;;11.99;44.13;102970.53;5058692;28;20490;-57
2022/03/25 07:46:57;;;;;;;55.70;35.67;;;;;;;11.99;44.19;102973.25;5063213;28;20087;-58
2022/03/25 07:49:26;;;;;;;53.85;34.88;;;;;;;11.99;44.28;102983.19;5061655;28;20055;-58
2022/03/25 07:51:54;;;;;;;55.67;35.45;;;;;;;11.98;44.34;102982.34;5045052;28;20076;-57
2022/03/25 07:54:21;;;;;;;60.85;36.28;;;;;;;11.99;44.33;102985.88;5054917;28;20045;-58
2022/03/25 07:56:49;;;;;;;56.97;36.58;;;;;;;11.98;44.27;102985.03;5055378;28;20082;-55
2022/03/25 07:59:17;;;;;;;58.95;37.35;;;;;;;11.95;44.41;102985.41;5053283;28;20475;-58
2022/03/25 08:01:45;;;;;;;60.95;37.03;;;;;;;11.93;44.64;102992.81;5061004;28;20080;-57
2022/03/25 08:04:13;;;;;;;62.40;38.15;;;;;;;11.90;44.46;102995.88;5048858;28;20080;-57
2022/03/25 08:06:42;;;;;;;63.38;38.83;;;;;;;11.88;44.66;102987.13;5053658;28;20110;-58
2022/03/25 08:09:12;;;;;;;57.55;37.72;;;;;;;11.87;44.80;102998.09;5058651;28;20053;-59
2022/03/25 08:11:40;;;;;;;64.00;40.13;;;;;;;11.86;44.83;102999.09;5052852;28;20128;-59
2022/03/25 08:14:08;;;;;;;62.58;39.53;;;;;;;11.85;44.73;103000.94;5056262;28;20053;-58
2022/03/25 08:16:36;;;;;;;69.93;40.10;;;;;;;11.86;44.96;103007.19;5051225;28;20072;-58
2022/03/25 08:19:05;;;;;;;63.17;39.35;;;;;;;11.87;44.57;103004.31;5053249;28;20068;-58
2022/03/25 08:21:33;;;;;;;67.15;39.70;;;;;;;11.87;44.88;103003.47;5057682;28;20113;-58
2022/03/25 08:29:35;;;;;;;68.35;42.80;;;;;;;11.89;44.79;103006.81;5047421;28;20471;-58
2022/03/25 08:32:04;;;;;;;65.38;39.50;;;;;;;11.90;44.89;103011.19;5055815;28;20073;-58
2022/03/25 08:34:32;;;;;;;67.15;38.90;;;;;;;11.91;44.65;103005.63;5049564;28;20052;-58
2022/03/25 08:37:00;;;;;;;68.10;40.15;;;;;;;11.90;44.77;103006.66;5051518;28;20077;-58
2022/03/25 08:39:29;;;;;;;69.18;42.88;;;;;;;11.92;44.66;103012.69;5056332;28;20481;-58
2022/03/25 08:41:57;;;;;;;65.00;40.40;;;;;;;11.94;44.73;103016.06;5057228;28;20585;-58
2022/03/25 08:44:24;;;;;;;66.47;39.65;;;;;;;11.95;44.73;103020.44;5058448;28;20084;-58
2022/03/25 08:46:52;;;;;;;67.68;41.08;;;;;;;11.96;44.71;103015.88;5060025;28;20045;-58
2022/03/25 08:49:20;;;;;;;65.43;40.13;;;;;;;11.96;44.49;103024.81;5064939;28;20056;-58
2022/03/25 08:51:48;;;;;;;63.15;38.97;;;;;;;11.97;44.60;103028.34;5063402;28;20048;-58
2022/03/25 08:54:20;;;;;;;62.72;37.85;;;;;;;11.96;44.38;103023.97;5069091;28;20059;-58
2022/03/25 08:56:50;;;;;;;66.63;39.13;;;;;;;11.97;44.29;103034.56;5060801;28;20084;-58
2022/03/25 08:59:18;;;;;;;58.88;35.72;;;;;;;11.98;44.11;103030.84;5058398;28;20045;-58
2022/03/25 09:01:46;;;;;;;59.28;35.25;;;;;;;11.99;44.00;103032.53;5050187;28;20049;-58
2022/03/25 09:04:13;;;;;;;59.10;34.70;;;;;;;11.99;43.92;103029.00;5062157;28;20053;-58
2022/03/25 09:06:41;;;;;;;52.45;33.95;;;;;;;12.02;43.55;103034.88;5060126;28;20045;-58
2022/03/25 09:09:09;;;;;;;56.90;33.95;;;;;;;12.06;43.46;103029.97;5051759;28;20059;-58
2022/03/25 09:11:37;;;;;;;57.65;34.80;;;;;;;12.08;43.61;103035.19;5060458;28;20048;-57
2022/03/25 09:14:06;;;;;;;56.50;34.42;;;;;;;12.09;43.47;103032.31;5061586;28;20510;-58
2022/03/25 09:16:34;;;;;;;55.05;34.78;;;;;;;12.12;43.49;103031.94;5061669;28;20051;-58
2022/03/25 09:19:02;;;;;;;50.20;32.33;;;;;;;12.12;43.47;103034.63;5056026;28;20079;-58
2022/03/25 09:21:30;;;;;;;53.42;32.15;;;;;;;12.14;43.31;103042.50;5062633;28;20072;-58
2022/03/25 09:23:57;;;;;;;47.28;29.90;;;;;;;12.16;43.25;103044.00;5055538;28;20048;-58
2022/03/25 09:26:25;;;;;;;46.58;32.05;;;;;;;12.19;43.57;103038.25;5061844;28;20092;-58
2022/03/25 09:28:53;;;;;;;50.65;30.73;;;;;;;12.23;43.41;103039.59;5068299;28;20057;-58
2022/03/25 09:31:22;;;;;;;48.97;28.40;;;;;;;12.22;43.14;103037.91;5059245;28;20076;-58
2022/03/25 09:36:54;;;;;;;53.33;28.70;;;;;;;12.27;43.07;103031.97;5057490;28;20076;-59
2022/03/25 09:39:22;;;;;;;47.00;29.02;;;;;;;12.29;43.52;103032.63;5058479;28;20053;-58
2022/03/25 09:41:51;;;;;;;49.80;30.48;;;;;;;12.31;43.26;103044.09;5052153;28;20056;-59
2022/03/25 09:44:19;;;;;;;42.55;28.42;;;;;;;12.30;43.17;103032.47;5058217;28;20064;-59
2022/03/25 09:46:50;;;;;;;48.33;29.63;;;;;;;12.32;43.35;103038.50;5066184;28;20079;-60
2022/03/25 09:49:20;;;;;;;46.38;28.02;;;;;;;12.34;43.39;103036.47;5061869;28;20045;-58
2022/03/25 09:51:48;;;;;;;45.15;27.45;;;;;;;12.36;43.26;103036.28;5059414;28;20092;-58
2022/03/25 09:54:17;;;;;;;44.83;28.60;;;;;;;12.36;43.27;103039.84;5062187;28;20049;-58
2022/03/25 09:56:45;;;;;;;43.92;28.42;;;;;;;12.39;43.15;103035.94;5051395;28;20191;-58
2022/03/25 09:59:17;;;;;;;46.95;28.02;;;;;;;12.39;43.26;103036.78;5053363;28;20113;-59
2022/03/25 10:01:45;;;;;;;42.47;26.90;;;;;;;12.41;43.17;103038.44;5064828;28;20254;-60
2022/03/25 10:04:39;;;;;;;41.30;27.05;;;;;;;12.42;42.74;103032.03;5051492;28;20049;-58
2022/03/25 10:07:18;;;;;;;46.05;27.58;;;;;;;12.45;42.60;103045.16;5057384;28;20074;-58
2022/03/25 10:09:47;;;;;;;44.75;26.77;;;;;;;12.47;42.58;103035.88;5058745;28;20521;-59
2022/03/25 10:12:23;;;;;;;42.22;25.73;;;;;;;12.50;42.50;103031.97;5058835;28;20056;-58
2022/03/25 10:14:52;;;;;;;45.35;26.10;;;;;;;12.51;42.48;103036.34;4702142;28;9999943;-60
2022/03/25 10:17:20;;;;;;;45.47;26.10;;;;;;;12.53;42.45;103032.44;5056847;28;20067;-58
2022/03/25 10:19:51;;;;;;;48.10;25.55;;;;;;;12.58;42.31;103031.91;5050584;28;20049;-59
2022/03/25 10:22:20;;;;;;;43.58;25.52;;;;;;;12.59;42.88;103036.28;5054514;28;20144;-58
2022/03/25 10:24:52;;;;;;;36.70;25.27;;;;;;;12.62;42.60;103025.97;5045573;28;20125;-58
2022/03/25 10:27:24;;;;;;;41.60;25.08;;;;;;;12.65;42.33;103030.16;5055654;28;20061;-59
2022/03/25 10:29:54;;;;;;;41.00;25.77;;;;;;;12.67;42.45;103020.88;5059998;28;20192;-59
2022/03/25 10:32:26;;;;;;;39.47;24.58;;;;;;;12.69;42.20;103021.53;5057264;28;20446;-58
2022/03/25 10:35:08;;;;;;;34.58;22.23;;;;;;;12.73;42.38;103027.38;5044919;28;20112;-58
2022/03/25 10:37:36;;;;;;;42.95;23.83;;;;;;;12.77;42.53;103023.31;5069802;28;20522;-59
2022/03/25 10:40:06;;;;;;;39.58;23.50;;;;;;;12.80;42.74;103019.41;5051638;28;20068;-58
2022/03/25 10:42:36;;;;;;;43.40;23.63;;;;;;;12.75;42.68;102994.81;5059480;28;20103;-59
2022/03/25 10:45:25;;;;;;;40.33;23.48;;;;;;;12.89;43.12;103021.84;5050139;28;20049;-58
2022/03/25 10:48:11;;;;;;;37.75;23.67;;;;;;;12.93;43.24;103008.81;5056116;28;20404;-58
2022/03/25 10:53:37;;;;;;;43.33;24.05;;;;;;;13.02;42.98;103022.03;5096195;27;20410;-58
2022/03/25 10:56:06;;;;;;;37.83;23.52;;;;;;;13.06;43.11;103013.56;5078411;28;20159;-59
2022/03/25 10:58:35;;;;;;;46.85;23.48;;;;;;;13.11;43.86;103011.16;5073363;28;20056;-58
2022/03/25 11:01:05;;;;;;;42.50;22.83;;;;;;;13.16;43.89;103014.13;5072099;28;20126;-59
2022/03/25 11:03:34;;;;;;;41.15;23.77;;;;;;;13.22;43.65;103008.03;5076308;28;20652;-60
2022/03/25 11:06:02;;;;;;;36.38;23.00;;;;;;;13.25;43.21;103013.06;5076009;28;20071;-59
2022/03/25 11:08:31;;;;;;;38.40;22.98;;;;;;;13.15;43.48;102989.00;5076340;28;20049;-59
2022/03/25 11:11:00;;;;;;;32.92;21.75;;;;;;;13.32;43.96;103000.47;5075987;28;20433;-59
2022/03/25 11:13:28;;;;;;;38.60;23.55;;;;;;;13.35;44.60;103011.75;5077870;28;20049;-59
2022/03/25 11:15:57;;;;;;;37.90;21.95;;;;;;;13.40;44.21;103004.94;5075109;28;20175;-59
2022/03/25 11:18:27;;;;;;;34.45;21.77;;;;;;;13.43;44.58;103005.41;5078408;28;20051;-59
2022/03/25 11:20:58;;;;;;;36.42;22.17;;;;;;;13.47;44.32;103004.00;5075114;28;20466;-59
2022/03/25 11:23:31;;;;;;;44.80;23.85;;;;;;;13.50;43.84;102998.22;5077677;28;20048;-59
2022/03/25 11:26:03;;;;;;;42.80;25.27;;;;;;;13.53;43.67;103005.09;5071288;28;20049;-59
2022/03/25 11:28:33;;;;;;;41.20;25.23;;;;;;;13.56;43.70;102993.94;5080049;28;20056;-57